• Join FlightAware (Why Join?)
  • Login
  • US Flag 
11:28AM EST


 

Airport Tracker/Info


-or-


 

Live Flight TrackerFlight Track Log ✈ SWA565 ✈ 09-Apr-2013 ✈ KMCO - KBWI

Flight Track Log - Related Links

Times and Time Zones

All times are in EDT time to prevent confusion due to time zone crossing. See the SWA565 flight status page for this flight to view local times or setup timezone preferences in your user account.

Time Position Orientation Groundspeed Altitude Reporting Facility
EDT Latitude Longitude Course Direction KTS MPH feet Rate Location/Type
07:36PM 28.4167 -81.3000 156° South 167 192 600  Level Orlando TRACON
07:37PM 28.3500 -81.2667 156° South 215 247 3,000 2,400 Climbing Orlando TRACON
07:38PM 28.3333 -81.2167 111° Southeast 225 259 5,700 2,880 Climbing Orlando TRACON
07:39PM 28.3833 -81.1833 30° Northeast 281 323 8,800 3,000 Climbing Orlando TRACON
07:40PM 28.4667 -81.2000 350° North 317 365 11,700 2,760 Climbing Orlando TRACON
07:43PM 28.6989 -81.2736 344° North 370 426 18,600 2,760 Climbing Jacksonville Center
07:44PM 28.8058 -81.3050 346° North 380 437 21,400 2,700 Climbing Jacksonville Center
07:45PM 28.9169 -81.3364 346° North 390 449 24,100 2,400 Climbing Jacksonville Center
07:46PM 29.0258 -81.3753 343° North 402 463 26,300 2,040 Climbing Jacksonville Center
07:47PM 29.1308 -81.4353 333° Northwest 408 470 28,200 1,920 Climbing Jacksonville Center
07:48PM 29.2361 -81.5075 329° Northwest 421 484 30,200 1,920 Climbing Jacksonville Center
07:49PM 29.3453 -81.5703 333° Northwest 434 499 32,100 1,860 Climbing Jacksonville Center
07:50PM 29.4564 -81.6308 335° Northwest 440 506 34,000 1,740 Climbing Jacksonville Center
07:51PM 29.5697 -81.6772 340° North 432 497 35,600 1,740 Climbing Jacksonville Center
07:52PM 29.6883 -81.6397 15° North 416 479 37,500 1,320 Climbing Jacksonville Center
07:53PM 29.8092 -81.6047 14° North 426 490 38,300 720 Climbing Jacksonville Center
07:54PM 29.9319 -81.5694 14° North 438 504 39,000 300 Climbing Jacksonville Center
07:55PM 30.0525 -81.5367 13° North 444 511 39,000  Level Jacksonville Center
07:56PM 30.1756 -81.5039 13° North 444 511 39,000  Level Jacksonville Center
07:57PM 30.2961 -81.4683 14° North 449 517 39,000  Level Jacksonville Center
07:58PM 30.4189 -81.4328 14° North 449 517 39,000  Level Jacksonville Center
07:59PM 30.5375 -81.4019 13° North 449 517 39,000  Level Jacksonville Center
08:00PM 30.6583 -81.3664 14° North 449 517 39,000  Level Jacksonville Center
08:01PM 30.7789 -81.3331 13° North 444 511 39,000  Level Jacksonville Center
08:02PM 30.8975 -81.2972 15° North 444 511 39,000  Level Jacksonville Center
08:03PM 31.0183 -81.2661 12° North 444 511 39,000  Level Jacksonville Center
08:04PM 31.1347 -81.2325 14° North 426 490 39,000  Level Jacksonville Center
08:05PM 31.2575 -81.1964 14° North 438 504 39,000  Level Jacksonville Center
08:06PM 31.3714 -81.1431 22° Northeast 438 504 39,000  Level Jacksonville Center
08:07PM 31.4708 -81.0731 31° Northeast 443 510 39,000  Level Jacksonville Center
08:08PM 31.5886 -80.9903 31° Northeast 448 516 39,000  Level Jacksonville Center
08:09PM 31.6958 -80.9122 32° Northeast 447 514 39,000  Level Jacksonville Center
08:10PM 31.7931 -80.8419 32° Northeast 447 514 39,000  Level Jacksonville Center
08:11PM 31.9086 -80.7608 31° Northeast 447 514 39,000  Level Jacksonville Center
08:12PM 32.0033 -80.6925 31° Northeast 447 514 39,000  Level Jacksonville Center
08:13PM 32.1189 -80.6064 32° Northeast 442 509 39,000  Level Jacksonville Center
08:14PM 32.2136 -80.5378 31° Northeast 442 509 39,000  Level Jacksonville Center
08:15PM 32.3186 -80.4589 32° Northeast 442 509 39,000  Level Jacksonville Center
08:16PM 32.4278 -80.3822 31° Northeast 442 509 39,000  Level Jacksonville Center
08:17PM 32.5306 -80.3053 32° Northeast 442 509 39,000  Level Jacksonville Center
08:18PM 32.6353 -80.2283 32° Northeast 442 509 39,000  Level Jacksonville Center
08:19PM 32.7422 -80.1511 31° Northeast 442 509 39,000  Level Jacksonville Center
08:20PM 32.8469 -80.0714 33° Northeast 442 509 39,000  Level Jacksonville Center
08:21PM 32.9639 -79.9858 32° Northeast 442 509 39,000  Level Jacksonville Center
08:22PM 33.0708 -79.9081 31° Northeast 447 514 39,000  Level Jacksonville Center
08:23PM 33.1775 -79.8325 31° Northeast 441 507 39,000  Level Jacksonville Center
08:24PM 33.2800 -79.7569 32° Northeast 436 502 39,000  Level Jacksonville Center
08:25PM 33.3867 -79.6811 31° Northeast 436 502 39,000  Level Jacksonville Center
08:26PM 33.4956 -79.6225 24° Northeast 436 502 39,000  Level Jacksonville Center
08:27PM 33.6067 -79.5608 25° Northeast 424 488 39,000  Level Jacksonville Center
08:28PM 33.7178 -79.4994 25° Northeast 424 488 39,000  Level Jacksonville Center
08:29PM 33.8289 -79.4400 24° Northeast 429 494 39,000  Level Jacksonville Center
08:30PM 33.9336 -79.3858 23° Northeast 423 487 39,000  Level Jacksonville Center
08:31PM 34.0467 -79.3236 25° Northeast 423 487 39,000  Level Jacksonville Center
08:33PM 34.2272 -79.2239 25° Northeast 442 509 39,000  Level Washington Center
08:34PM 34.3314 -79.1631 26° Northeast 450 518 39,000  Level Washington Center
08:35PM 34.4417 -79.0997 25° Northeast 444 511 39,000  Level Washington Center
08:36PM 34.5542 -79.0392 24° Northeast 444 511 39,000  Level Washington Center
08:37PM 34.6664 -78.9756 25° Northeast 437 503 39,000  Level Washington Center
08:38PM 34.7767 -78.9119 25° Northeast 437 503 39,000  Level Washington Center
08:39PM 34.8869 -78.8533 24° Northeast 432 497 39,000  Level Washington Center
08:40PM 34.9969 -78.7892 26° Northeast 432 497 39,000  Level Washington Center
08:41PM 35.1072 -78.7275 25° Northeast 432 497 39,000  Level Washington Center
08:42PM 35.2153 -78.6656 25° Northeast 432 497 39,000  Level Washington Center
08:43PM 35.3422 -78.5942 25° Northeast 439 505 39,000  Level Washington Center
08:44PM 35.4375 -78.5392 25° Northeast 439 505 39,000  Level Washington Center
08:45PM 35.5603 -78.4694 25° Northeast 434 499 39,000  Level Washington Center
08:46PM 35.6722 -78.4044 25° Northeast 434 499 39,000 -540 Level Washington Center
08:47PM 35.7803 -78.3417 25° Northeast 429 494 38,000 -540 Descending Washington Center
08:48PM 35.8900 -78.2814 24° Northeast 429 494 38,000  Level Washington Center
08:49PM 35.9978 -78.2183 25° Northeast 429 494 38,000 -300 Level Washington Center
08:50PM 36.1078 -78.1553 25° Northeast 429 494 37,400 -780 Descending Washington Center
08:51PM 36.2197 -78.0894 25° Northeast 429 494 36,500 -720 Descending Washington Center
08:52PM 36.3275 -78.0258 25° Northeast 429 494 36,000 -840 Descending Washington Center
08:53PM 36.4331 -77.9644 25° Northeast 424 488 34,900 -1,080 Descending Washington Center
08:54PM 36.5428 -77.8956 27° Northeast 424 488 33,900 -1,020 Descending Washington Center
08:55PM 36.6506 -77.8314 26° Northeast 424 488 32,900 -1,020 Descending Washington Center
08:56PM 36.7558 -77.7722 24° Northeast 424 488 31,900 -1,020 Descending Washington Center
08:57PM 36.8592 -77.7075 27° Northeast 424 488 30,900 -1,020 Descending Washington Center
08:58PM 36.9625 -77.6453 26° Northeast 414 476 29,900 -1,080 Descending Washington Center
08:59PM 37.0636 -77.5856 25° Northeast 404 465 28,800 -1,020 Descending Washington Center
09:00PM 37.1628 -77.5256 26° Northeast 397 457 27,900 -1,020 Descending Washington Center
09:01PM 37.2636 -77.4839 18° North 386 444 26,800 -1,080 Descending Washington Center
09:02PM 37.3664 -77.4525 14° North 381 438 25,800 -1,020 Descending Washington Center
09:03PM 37.4647 -77.4233 13° North 370 426 24,800 -1,020 Descending Washington Center
09:04PM 37.5633 -77.3917 14° North 370 426 23,800 -1,020 Descending Washington Center
09:05PM 37.6639 -77.3600 14° North 365 420 22,800 -1,020 Descending Washington Center
09:06PM 37.7644 -77.3308 13° North 365 420 21,800 -1,020 Descending Washington Center
09:07PM 37.8608 -77.2989 15° North 360 414 20,800 -1,020 Descending Washington Center
09:08PM 37.9592 -77.2669 14° North 355 409 19,800 -900 Descending Washington Center
09:09PM 38.0492 -77.2425 12° North 355 409 19,000 -900 Descending Washington Center
09:10PM 38.1436 -77.2128 14° North 355 409 18,000 -960 Descending Washington Center
09:11PM 38.2378 -77.1831 14° North 350 403 17,100 -960 Descending Washington Center
09:12PM 38.3258 -77.1558 14° North 335 386 16,100 -1,140 Descending Washington Center
09:13PM 38.4097 -77.1100 23° Northeast 335 386 14,900 -1,500 Descending Washington Center
09:14PM 38.4775 -77.0264 44° Northeast 327 376 13,100 -1,440 Descending Washington Center
09:15PM 38.5431 -76.9453 44° Northeast 327 376 12,100 -1,260 Descending Washington Center
09:16PM 38.6147 -76.8592 43° Northeast 322 371 10,600 -1,260 Descending Washington Center
09:17PM 38.6761 -76.7831 44° Northeast 312 359 9,600 -1,200 Descending Washington Center
09:19PM 38.7667 -76.6000 58° Northeast 293 337 7,000 -1,260 Descending Potomac TRACON
09:20PM 38.8167 -76.5333 46° Northeast 292 336 5,700 -1,020 Descending Potomac TRACON
09:21PM 38.9000 -76.5500 351° North 263 303 5,000 -360 Descending Potomac TRACON
09:22PM 38.9667 -76.5833 339° North 258 297 5,000 -360 Level Potomac TRACON
09:23PM 39.0000 -76.6667 297° West 253 291 4,300 -540 Descending Potomac TRACON
09:24PM 39.0333 -76.7333 303° West 251 289 4,000 -840 Descending Potomac TRACON
09:25PM 39.0833 -76.8000 314° West 261 300 2,700 -900 Descending Potomac TRACON
09:26PM 39.1500 -76.8167 349° North 238 274 2,200 -540 Descending Potomac TRACON
09:27PM 39.1833 -76.7833 38° Northeast 193 222 1,700 -780 Descending Potomac TRACON
09:28PM 39.1833 -76.7167 90° East 143 165 700 -1,020 Descending Potomac TRACON
09:30PM 39.1754 -76.6683 North  Level Estimated
09:37PM 39.1754 -76.6683 North  Level Estimated
09:38PM 39.1754 -76.6683 North  Level Estimated
09:39PM 39.1754 -76.6683 North  Level Estimated